sensor_id;sensor_type;location;lat;lon;timestamp;temperature;humidity
27026;DHT22;14565;48.626;8.978;2023-07-20T00:01:15;18.10;98.10
27026;DHT22;14565;48.626;8.978;2023-07-20T00:03:41;18.00;98.50
27026;DHT22;14565;48.626;8.978;2023-07-20T00:06:07;17.90;98.30
27026;DHT22;14565;48.626;8.978;2023-07-20T00:08:32;17.80;98.30
27026;DHT22;14565;48.626;8.978;2023-07-20T00:10:58;17.70;98.40
27026;DHT22;14565;48.626;8.978;2023-07-20T00:13:24;17.70;98.60
27026;DHT22;14565;48.626;8.978;2023-07-20T00:15:51;17.60;98.70
27026;DHT22;14565;48.626;8.978;2023-07-20T00:18:17;17.60;98.90
27026;DHT22;14565;48.626;8.978;2023-07-20T00:20:42;17.50;98.90
27026;DHT22;14565;48.626;8.978;2023-07-20T00:23:08;17.40;99.00
27026;DHT22;14565;48.626;8.978;2023-07-20T00:25:34;17.40;99.10
27026;DHT22;14565;48.626;8.978;2023-07-20T00:28:00;17.30;99.10
27026;DHT22;14565;48.626;8.978;2023-07-20T00:30:26;17.30;99.10
27026;DHT22;14565;48.626;8.978;2023-07-20T00:32:52;17.30;99.10
27026;DHT22;14565;48.626;8.978;2023-07-20T00:35:18;17.30;98.90
27026;DHT22;14565;48.626;8.978;2023-07-20T00:37:43;17.30;98.80
27026;DHT22;14565;48.626;8.978;2023-07-20T00:40:09;17.30;98.70
27026;DHT22;14565;48.626;8.978;2023-07-20T00:42:35;17.30;98.40
27026;DHT22;14565;48.626;8.978;2023-07-20T00:45:01;17.30;98.70
27026;DHT22;14565;48.626;8.978;2023-07-20T00:47:27;17.30;99.20
27026;DHT22;14565;48.626;8.978;2023-07-20T00:49:54;17.20;98.90
27026;DHT22;14565;48.626;8.978;2023-07-20T00:52:21;17.20;99.10
27026;DHT22;14565;48.626;8.978;2023-07-20T00:54:49;17.10;99.30
27026;DHT22;14565;48.626;8.978;2023-07-20T00:57:16;17.10;99.90
27026;DHT22;14565;48.626;8.978;2023-07-20T00:59:43;17.00;99.50
27026;DHT22;14565;48.626;8.978;2023-07-20T01:02:09;16.80;99.50
27026;DHT22;14565;48.626;8.978;2023-07-20T01:04:35;16.90;99.70
27026;DHT22;14565;48.626;8.978;2023-07-20T01:07:23;16.90;99.40
27026;DHT22;14565;48.626;8.978;2023-07-20T01:10:05;16.90;99.30
27026;DHT22;14565;48.626;8.978;2023-07-20T01:12:56;17.00;98.60
27026;DHT22;14565;48.626;8.978;2023-07-20T01:15:21;17.10;98.30
27026;DHT22;14565;48.626;8.978;2023-07-20T01:17:46;17.10;98.30
27026;DHT22;14565;48.626;8.978;2023-07-20T01:20:16;17.00;98.40
27026;DHT22;14565;48.626;8.978;2023-07-20T01:33:21;17.20;98.20
27026;DHT22;14565;48.626;8.978;2023-07-20T01:35:51;17.10;97.90
27026;DHT22;14565;48.626;8.978;2023-07-20T01:38:18;17.10;98.10
27026;DHT22;14565;48.626;8.978;2023-07-20T01:40:45;17.10;98.10
27026;DHT22;14565;48.626;8.978;2023-07-20T01:43:11;17.00;98.20
27026;DHT22;14565;48.626;8.978;2023-07-20T01:45:37;17.00;98.70
27026;DHT22;14565;48.626;8.978;2023-07-20T01:48:03;16.90;98.80
27026;DHT22;14565;48.626;8.978;2023-07-20T01:50:29;16.90;98.80
27026;DHT22;14565;48.626;8.978;2023-07-20T01:52:54;16.80;99.00
27026;DHT22;14565;48.626;8.978;2023-07-20T01:55:20;16.70;99.30
27026;DHT22;14565;48.626;8.978;2023-07-20T01:57:46;16.70;99.50
27026;DHT22;14565;48.626;8.978;2023-07-20T02:00:12;16.60;99.70
27026;DHT22;14565;48.626;8.978;2023-07-20T02:02:37;16.60;99.70
27026;DHT22;14565;48.626;8.978;2023-07-20T02:05:03;16.50;99.80
27026;DHT22;14565;48.626;8.978;2023-07-20T02:07:29;16.50;99.90
27026;DHT22;14565;48.626;8.978;2023-07-20T02:09:54;16.40;99.90
27026;DHT22;14565;48.626;8.978;2023-07-20T02:12:20;16.40;99.90
27026;DHT22;14565;48.626;8.978;2023-07-20T02:14:46;16.40;99.90
27026;DHT22;14565;48.626;8.978;2023-07-20T02:17:11;16.30;99.90
27026;DHT22;14565;48.626;8.978;2023-07-20T02:19:37;16.20;99.90
27026;DHT22;14565;48.626;8.978;2023-07-20T02:22:04;16.30;99.90
27026;DHT22;14565;48.626;8.978;2023-07-20T02:24:29;16.30;99.90
27026;DHT22;14565;48.626;8.978;2023-07-20T02:26:55;16.30;99.90
27026;DHT22;14565;48.626;8.978;2023-07-20T02:29:21;16.20;99.90
27026;DHT22;14565;48.626;8.978;2023-07-20T02:31:46;16.10;99.90
27026;DHT22;14565;48.626;8.978;2023-07-20T02:34:12;16.00;99.90
27026;DHT22;14565;48.626;8.978;2023-07-20T02:36:38;16.00;99.90
27026;DHT22;14565;48.626;8.978;2023-07-20T02:39:04;15.90;99.90
27026;DHT22;14565;48.626;8.978;2023-07-20T02:41:33;15.90;99.90
27026;DHT22;14565;48.626;8.978;2023-07-20T02:43:59;15.90;99.90
27026;DHT22;14565;48.626;8.978;2023-07-20T02:46:25;15.70;99.90
27026;DHT22;14565;48.626;8.978;2023-07-20T02:48:50;15.60;99.90
27026;DHT22;14565;48.626;8.978;2023-07-20T02:51:16;15.40;99.90
27026;DHT22;14565;48.626;8.978;2023-07-20T02:53:42;15.50;99.90
27026;DHT22;14565;48.626;8.978;2023-07-20T02:56:08;15.60;99.90
27026;DHT22;14565;48.626;8.978;2023-07-20T02:58:34;15.70;99.90
27026;DHT22;14565;48.626;8.978;2023-07-20T03:01:04;15.70;99.90
27026;DHT22;14565;48.626;8.978;2023-07-20T03:03:29;15.80;99.90
27026;DHT22;14565;48.626;8.978;2023-07-20T03:05:55;15.80;99.90
27026;DHT22;14565;48.626;8.978;2023-07-20T03:08:23;15.80;99.90
27026;DHT22;14565;48.626;8.978;2023-07-20T03:10:49;15.90;99.90
27026;DHT22;14565;48.626;8.978;2023-07-20T03:13:15;15.90;99.90
27026;DHT22;14565;48.626;8.978;2023-07-20T03:15:41;15.70;99.90
27026;DHT22;14565;48.626;8.978;2023-07-20T03:18:07;15.40;99.90
27026;DHT22;14565;48.626;8.978;2023-07-20T03:20:33;15.30;99.90
27026;DHT22;14565;48.626;8.978;2023-07-20T03:23:00;15.10;99.90
27026;DHT22;14565;48.626;8.978;2023-07-20T03:25:26;15.00;99.90
27026;DHT22;14565;48.626;8.978;2023-07-20T03:27:51;14.90;99.90
27026;DHT22;14565;48.626;8.978;2023-07-20T03:30:17;14.80;99.90
27026;DHT22;14565;48.626;8.978;2023-07-20T03:32:43;14.80;99.90
27026;DHT22;14565;48.626;8.978;2023-07-20T03:35:09;14.70;99.90
27026;DHT22;14565;48.626;8.978;2023-07-20T03:37:35;14.70;99.90
27026;DHT22;14565;48.626;8.978;2023-07-20T03:40:02;14.70;99.90
27026;DHT22;14565;48.626;8.978;2023-07-20T03:42:28;14.70;99.90
27026;DHT22;14565;48.626;8.978;2023-07-20T03:44:54;14.70;99.90
27026;DHT22;14565;48.626;8.978;2023-07-20T03:47:19;14.70;99.90
27026;DHT22;14565;48.626;8.978;2023-07-20T03:49:45;14.70;99.90
27026;DHT22;14565;48.626;8.978;2023-07-20T03:52:11;14.70;99.90
27026;DHT22;14565;48.626;8.978;2023-07-20T03:54:36;14.80;99.90
27026;DHT22;14565;48.626;8.978;2023-07-20T03:57:05;14.70;99.90
27026;DHT22;14565;48.626;8.978;2023-07-20T03:59:31;14.80;99.90
27026;DHT22;14565;48.626;8.978;2023-07-20T04:01:56;14.90;99.90
27026;DHT22;14565;48.626;8.978;2023-07-20T04:04:22;15.20;99.90
27026;DHT22;14565;48.626;8.978;2023-07-20T04:06:48;15.00;99.90
27026;DHT22;14565;48.626;8.978;2023-07-20T04:09:13;15.00;99.90
27026;DHT22;14565;48.626;8.978;2023-07-20T04:11:39;15.00;99.90
27026;DHT22;14565;48.626;8.978;2023-07-20T04:14:05;15.20;99.90
27026;DHT22;14565;48.626;8.978;2023-07-20T04:16:31;15.30;99.90
27026;DHT22;14565;48.626;8.978;2023-07-20T04:18:58;15.40;99.90
27026;DHT22;14565;48.626;8.978;2023-07-20T04:21:26;15.50;99.90
27026;DHT22;14565;48.626;8.978;2023-07-20T04:23:52;15.60;99.90
27026;DHT22;14565;48.626;8.978;2023-07-20T04:26:18;15.50;99.90
27026;DHT22;14565;48.626;8.978;2023-07-20T04:28:43;15.50;99.90
27026;DHT22;14565;48.626;8.978;2023-07-20T04:31:10;15.70;99.90
27026;DHT22;14565;48.626;8.978;2023-07-20T04:33:39;15.70;99.90
27026;DHT22;14565;48.626;8.978;2023-07-20T04:36:05;15.90;99.90
27026;DHT22;14565;48.626;8.978;2023-07-20T04:38:31;15.90;99.90
27026;DHT22;14565;48.626;8.978;2023-07-20T04:40:56;15.80;99.90
27026;DHT22;14565;48.626;8.978;2023-07-20T04:43:22;15.80;99.90
27026;DHT22;14565;48.626;8.978;2023-07-20T04:45:48;15.80;99.90
27026;DHT22;14565;48.626;8.978;2023-07-20T04:48:15;15.90;99.90
27026;DHT22;14565;48.626;8.978;2023-07-20T04:50:42;16.10;99.90
27026;DHT22;14565;48.626;8.978;2023-07-20T04:53:12;16.00;99.90
27026;DHT22;14565;48.626;8.978;2023-07-20T04:55:39;16.10;99.90
27026;DHT22;14565;48.626;8.978;2023-07-20T04:58:05;16.20;99.90
27026;DHT22;14565;48.626;8.978;2023-07-20T05:00:33;16.20;99.90
27026;DHT22;14565;48.626;8.978;2023-07-20T05:02:59;16.20;99.90
27026;DHT22;14565;48.626;8.978;2023-07-20T05:05:25;16.40;99.90
27026;DHT22;14565;48.626;8.978;2023-07-20T05:07:50;16.50;99.90
27026;DHT22;14565;48.626;8.978;2023-07-20T05:10:26;16.70;99.90
27026;DHT22;14565;48.626;8.978;2023-07-20T05:13:05;16.90;99.90
27026;DHT22;14565;48.626;8.978;2023-07-20T05:15:33;17.00;99.90
27026;DHT22;14565;48.626;8.978;2023-07-20T05:18:00;17.20;99.90
27026;DHT22;14565;48.626;8.978;2023-07-20T05:20:26;17.10;99.90
27026;DHT22;14565;48.626;8.978;2023-07-20T05:25:20;17.40;99.90
27026;DHT22;14565;48.626;8.978;2023-07-20T05:27:48;17.50;99.90
27026;DHT22;14565;48.626;8.978;2023-07-20T05:30:14;17.50;99.90
27026;DHT22;14565;48.626;8.978;2023-07-20T05:32:39;17.60;99.90
27026;DHT22;14565;48.626;8.978;2023-07-20T05:35:06;17.70;99.90
27026;DHT22;14565;48.626;8.978;2023-07-20T05:37:31;17.70;99.90
27026;DHT22;14565;48.626;8.978;2023-07-20T05:39:57;18.00;99.90
27026;DHT22;14565;48.626;8.978;2023-07-20T05:42:23;18.20;99.90
27026;DHT22;14565;48.626;8.978;2023-07-20T05:44:49;18.00;99.90
27026;DHT22;14565;48.626;8.978;2023-07-20T05:47:15;18.00;99.90
27026;DHT22;14565;48.626;8.978;2023-07-20T05:49:41;18.40;99.90
27026;DHT22;14565;48.626;8.978;2023-07-20T05:52:07;19.20;99.90
27026;DHT22;14565;48.626;8.978;2023-07-20T05:54:32;20.20;99.90
27026;DHT22;14565;48.626;8.978;2023-07-20T05:56:58;21.90;99.00
27026;DHT22;14565;48.626;8.978;2023-07-20T05:59:24;23.10;96.60
27026;DHT22;14565;48.626;8.978;2023-07-20T06:01:50;23.10;94.70
27026;DHT22;14565;48.626;8.978;2023-07-20T06:04:15;23.40;94.00
27026;DHT22;14565;48.626;8.978;2023-07-20T06:06:41;23.60;93.80
27026;DHT22;14565;48.626;8.978;2023-07-20T06:09:07;22.50;94.90
27026;DHT22;14565;48.626;8.978;2023-07-20T06:11:37;21.40;96.10
27026;DHT22;14565;48.626;8.978;2023-07-20T06:14:04;21.00;97.30
27026;DHT22;14565;48.626;8.978;2023-07-20T06:16:30;20.40;98.30
27026;DHT22;14565;48.626;8.978;2023-07-20T06:18:56;20.20;99.00
27026;DHT22;14565;48.626;8.978;2023-07-20T06:21:22;19.60;99.90
27026;DHT22;14565;48.626;8.978;2023-07-20T06:23:47;19.60;99.90
27026;DHT22;14565;48.626;8.978;2023-07-20T06:26:13;19.40;99.90
27026;DHT22;14565;48.626;8.978;2023-07-20T06:28:39;19.50;99.90
27026;DHT22;14565;48.626;8.978;2023-07-20T06:31:04;19.60;99.90
27026;DHT22;14565;48.626;8.978;2023-07-20T06:33:30;19.30;99.90
27026;DHT22;14565;48.626;8.978;2023-07-20T06:35:57;19.70;99.90
27026;DHT22;14565;48.626;8.978;2023-07-20T06:38:23;20.00;99.90
27026;DHT22;14565;48.626;8.978;2023-07-20T06:40:52;20.30;99.90
27026;DHT22;14565;48.626;8.978;2023-07-20T06:43:18;20.10;99.40
27026;DHT22;14565;48.626;8.978;2023-07-20T06:45:43;19.80;99.80
27026;DHT22;14565;48.626;8.978;2023-07-20T06:48:09;19.90;99.70
27026;DHT22;14565;48.626;8.978;2023-07-20T06:50:35;20.00;99.70
27026;DHT22;14565;48.626;8.978;2023-07-20T06:53:01;20.40;99.40
27026;DHT22;14565;48.626;8.978;2023-07-20T06:55:29;20.70;98.60
27026;DHT22;14565;48.626;8.978;2023-07-20T06:57:55;20.50;98.90
27026;DHT22;14565;48.626;8.978;2023-07-20T07:00:21;20.50;98.90
27026;DHT22;14565;48.626;8.978;2023-07-20T07:02:46;20.20;99.30
27026;DHT22;14565;48.626;8.978;2023-07-20T07:05:12;21.20;98.20
27026;DHT22;14565;48.626;8.978;2023-07-20T07:07:41;22.10;96.60
27026;DHT22;14565;48.626;8.978;2023-07-20T07:10:07;23.00;95.00
27026;DHT22;14565;48.626;8.978;2023-07-20T07:12:33;24.80;93.10
27026;DHT22;14565;48.626;8.978;2023-07-20T07:15:00;24.50;92.60
27026;DHT22;14565;48.626;8.978;2023-07-20T07:17:26;25.60;91.60
27026;DHT22;14565;48.626;8.978;2023-07-20T07:19:52;25.10;91.20
27026;DHT22;14565;48.626;8.978;2023-07-20T07:22:20;25.10;91.10
27026;DHT22;14565;48.626;8.978;2023-07-20T07:24:49;25.50;90.50
27026;DHT22;14565;48.626;8.978;2023-07-20T07:27:15;25.50;90.50
27026;DHT22;14565;48.626;8.978;2023-07-20T07:29:46;24.80;91.30
27026;DHT22;14565;48.626;8.978;2023-07-20T07:32:13;24.30;91.70
27026;DHT22;14565;48.626;8.978;2023-07-20T07:34:39;25.20;90.70
27026;DHT22;14565;48.626;8.978;2023-07-20T07:37:05;25.30;90.60
27026;DHT22;14565;48.626;8.978;2023-07-20T07:39:31;25.90;90.00
27026;DHT22;14565;48.626;8.978;2023-07-20T07:41:56;25.30;90.00
27026;DHT22;14565;48.626;8.978;2023-07-20T07:44:23;25.40;90.00
27026;DHT22;14565;48.626;8.978;2023-07-20T07:46:49;26.00;88.30
27026;DHT22;14565;48.626;8.978;2023-07-20T07:49:15;25.80;88.00
27026;DHT22;14565;48.626;8.978;2023-07-20T07:51:40;24.40;90.20
27026;DHT22;14565;48.626;8.978;2023-07-20T07:54:06;24.80;90.80
27026;DHT22;14565;48.626;8.978;2023-07-20T07:56:32;25.00;89.80
27026;DHT22;14565;48.626;8.978;2023-07-20T07:58:58;24.70;90.50
27026;DHT22;14565;48.626;8.978;2023-07-20T08:01:23;24.50;91.10
27026;DHT22;14565;48.626;8.978;2023-07-20T08:03:49;24.30;90.30
27026;DHT22;14565;48.626;8.978;2023-07-20T08:06:15;24.70;90.40
27026;DHT22;14565;48.626;8.978;2023-07-20T08:08:41;25.10;90.20
27026;DHT22;14565;48.626;8.978;2023-07-20T08:11:08;25.80;86.70
27026;DHT22;14565;48.626;8.978;2023-07-20T08:13:36;25.30;88.70
27026;DHT22;14565;48.626;8.978;2023-07-20T08:16:05;24.60;88.80
27026;DHT22;14565;48.626;8.978;2023-07-20T08:18:31;24.50;90.00
27026;DHT22;14565;48.626;8.978;2023-07-20T08:20:57;24.50;87.40
27026;DHT22;14565;48.626;8.978;2023-07-20T08:23:22;24.40;87.50
27026;DHT22;14565;48.626;8.978;2023-07-20T08:25:48;24.40;86.90
27026;DHT22;14565;48.626;8.978;2023-07-20T08:28:15;23.80;88.50
27026;DHT22;14565;48.626;8.978;2023-07-20T08:30:44;23.70;89.40
27026;DHT22;14565;48.626;8.978;2023-07-20T08:33:12;23.50;90.20
27026;DHT22;14565;48.626;8.978;2023-07-20T08:35:38;23.30;90.50
27026;DHT22;14565;48.626;8.978;2023-07-20T08:38:04;23.90;89.80
27026;DHT22;14565;48.626;8.978;2023-07-20T08:40:34;24.30;87.90
27026;DHT22;14565;48.626;8.978;2023-07-20T08:43:04;23.40;89.00
27026;DHT22;14565;48.626;8.978;2023-07-20T08:45:33;23.30;90.00
27026;DHT22;14565;48.626;8.978;2023-07-20T08:48:00;22.90;90.10
27026;DHT22;14565;48.626;8.978;2023-07-20T08:50:32;22.80;90.80
27026;DHT22;14565;48.626;8.978;2023-07-20T08:52:59;22.40;91.50
27026;DHT22;14565;48.626;8.978;2023-07-20T08:55:29;22.20;92.30
27026;DHT22;14565;48.626;8.978;2023-07-20T08:57:58;22.10;92.20
27026;DHT22;14565;48.626;8.978;2023-07-20T09:00:25;22.10;91.90
27026;DHT22;14565;48.626;8.978;2023-07-20T09:02:53;22.20;91.20
27026;DHT22;14565;48.626;8.978;2023-07-20T09:05:19;22.70;90.90
27026;DHT22;14565;48.626;8.978;2023-07-20T09:07:46;23.40;89.60
27026;DHT22;14565;48.626;8.978;2023-07-20T09:10:12;23.70;87.70
27026;DHT22;14565;48.626;8.978;2023-07-20T09:12:39;24.20;86.10
27026;DHT22;14565;48.626;8.978;2023-07-20T09:15:06;24.50;84.60
27026;DHT22;14565;48.626;8.978;2023-07-20T09:17:33;25.10;82.90
27026;DHT22;14565;48.626;8.978;2023-07-20T09:20:02;25.50;82.60
27026;DHT22;14565;48.626;8.978;2023-07-20T09:22:30;25.40;81.20
27026;DHT22;14565;48.626;8.978;2023-07-20T09:24:57;25.50;80.50
27026;DHT22;14565;48.626;8.978;2023-07-20T09:27:35;25.20;80.90
27026;DHT22;14565;48.626;8.978;2023-07-20T09:30:03;24.60;81.20
27026;DHT22;14565;48.626;8.978;2023-07-20T09:32:29;24.70;80.10
27026;DHT22;14565;48.626;8.978;2023-07-20T09:34:54;24.70;79.20
27026;DHT22;14565;48.626;8.978;2023-07-20T09:37:21;24.40;80.10
27026;DHT22;14565;48.626;8.978;2023-07-20T09:39:47;23.40;84.40
27026;DHT22;14565;48.626;8.978;2023-07-20T09:42:15;23.80;85.10
27026;DHT22;14565;48.626;8.978;2023-07-20T09:44:43;24.20;84.40
27026;DHT22;14565;48.626;8.978;2023-07-20T09:47:10;24.20;84.90
27026;DHT22;14565;48.626;8.978;2023-07-20T09:49:41;24.10;84.20
27026;DHT22;14565;48.626;8.978;2023-07-20T09:52:11;23.90;81.80
27026;DHT22;14565;48.626;8.978;2023-07-20T09:54:40;23.50;81.10
27026;DHT22;14565;48.626;8.978;2023-07-20T09:57:09;23.30;84.90
27026;DHT22;14565;48.626;8.978;2023-07-20T09:59:36;23.80;84.10
27026;DHT22;14565;48.626;8.978;2023-07-20T10:02:07;24.50;79.40
27026;DHT22;14565;48.626;8.978;2023-07-20T10:04:36;24.80;76.50
27026;DHT22;14565;48.626;8.978;2023-07-20T10:07:05;24.80;75.80
27026;DHT22;14565;48.626;8.978;2023-07-20T10:09:35;24.00;78.70
27026;DHT22;14565;48.626;8.978;2023-07-20T10:12:04;23.70;78.00
27026;DHT22;14565;48.626;8.978;2023-07-20T10:14:30;23.40;80.90
27026;DHT22;14565;48.626;8.978;2023-07-20T10:17:07;23.20;81.70
27026;DHT22;14565;48.626;8.978;2023-07-20T10:19:46;23.60;81.40
27026;DHT22;14565;48.626;8.978;2023-07-20T10:22:14;24.50;79.10
27026;DHT22;14565;48.626;8.978;2023-07-20T10:24:45;24.90;77.00
27026;DHT22;14565;48.626;8.978;2023-07-20T10:27:12;24.70;74.70
27026;DHT22;14565;48.626;8.978;2023-07-20T10:29:39;24.50;75.30
27026;DHT22;14565;48.626;8.978;2023-07-20T10:32:06;24.70;79.00
27026;DHT22;14565;48.626;8.978;2023-07-20T10:34:32;24.40;77.10
27026;DHT22;14565;48.626;8.978;2023-07-20T10:36:59;24.30;78.70
27026;DHT22;14565;48.626;8.978;2023-07-20T10:39:26;24.30;79.00
27026;DHT22;14565;48.626;8.978;2023-07-20T10:42:08;24.30;78.40
27026;DHT22;14565;48.626;8.978;2023-07-20T10:44:37;24.80;76.40
27026;DHT22;14565;48.626;8.978;2023-07-20T10:47:08;24.60;74.60
27026;DHT22;14565;48.626;8.978;2023-07-20T10:49:34;24.40;73.60
27026;DHT22;14565;48.626;8.978;2023-07-20T10:52:04;24.70;73.20
27026;DHT22;14565;48.626;8.978;2023-07-20T10:56:57;24.70;75.50
27026;DHT22;14565;48.626;8.978;2023-07-20T11:01:49;24.90;74.00
27026;DHT22;14565;48.626;8.978;2023-07-20T11:04:16;24.70;73.80
27026;DHT22;14565;48.626;8.978;2023-07-20T11:06:45;24.80;72.50
27026;DHT22;14565;48.626;8.978;2023-07-20T11:09:12;24.60;73.40
27026;DHT22;14565;48.626;8.978;2023-07-20T11:11:50;24.80;73.60
27026;DHT22;14565;48.626;8.978;2023-07-20T11:14:23;24.90;73.70
27026;DHT22;14565;48.626;8.978;2023-07-20T11:16:51;25.10;74.30
27026;DHT22;14565;48.626;8.978;2023-07-20T11:19:22;25.20;72.60
27026;DHT22;14565;48.626;8.978;2023-07-20T11:21:58;25.10;72.80
27026;DHT22;14565;48.626;8.978;2023-07-20T11:24:24;25.50;73.90
27026;DHT22;14565;48.626;8.978;2023-07-20T11:26:54;25.90;74.70
27026;DHT22;14565;48.626;8.978;2023-07-20T11:29:21;26.50;73.10
27026;DHT22;14565;48.626;8.978;2023-07-20T11:31:48;25.70;70.80
27026;DHT22;14565;48.626;8.978;2023-07-20T11:34:16;25.40;73.00
27026;DHT22;14565;48.626;8.978;2023-07-20T11:36:50;25.20;71.10
27026;DHT22;14565;48.626;8.978;2023-07-20T11:39:21;25.50;71.30
27026;DHT22;14565;48.626;8.978;2023-07-20T11:41:55;25.30;70.80
27026;DHT22;14565;48.626;8.978;2023-07-20T11:44:22;25.60;69.00
27026;DHT22;14565;48.626;8.978;2023-07-20T11:49:30;26.00;70.70
27026;DHT22;14565;48.626;8.978;2023-07-20T11:51:57;26.10;70.10
27026;DHT22;14565;48.626;8.978;2023-07-20T11:54:24;26.30;70.30
27026;DHT22;14565;48.626;8.978;2023-07-20T11:56:54;25.80;67.70
27026;DHT22;14565;48.626;8.978;2023-07-20T11:59:23;26.30;69.70
27026;DHT22;14565;48.626;8.978;2023-07-20T12:01:49;26.20;69.00
27026;DHT22;14565;48.626;8.978;2023-07-20T12:04:15;26.00;68.90
27026;DHT22;14565;48.626;8.978;2023-07-20T12:06:40;26.10;68.90
27026;DHT22;14565;48.626;8.978;2023-07-20T12:09:06;25.80;70.40
27026;DHT22;14565;48.626;8.978;2023-07-20T12:11:38;26.30;70.50
27026;DHT22;14565;48.626;8.978;2023-07-20T12:14:07;26.50;70.10
27026;DHT22;14565;48.626;8.978;2023-07-20T12:16:33;26.30;70.60
27026;DHT22;14565;48.626;8.978;2023-07-20T12:19:12;26.20;70.20
27026;DHT22;14565;48.626;8.978;2023-07-20T12:21:39;25.80;68.90
27026;DHT22;14565;48.626;8.978;2023-07-20T12:24:06;25.80;69.50
27026;DHT22;14565;48.626;8.978;2023-07-20T12:26:34;25.60;70.30
27026;DHT22;14565;48.626;8.978;2023-07-20T12:29:01;25.20;71.40
27026;DHT22;14565;48.626;8.978;2023-07-20T12:31:29;25.50;71.70
27026;DHT22;14565;48.626;8.978;2023-07-20T12:33:56;25.80;69.00
27026;DHT22;14565;48.626;8.978;2023-07-20T12:36:22;25.30;70.90
27026;DHT22;14565;48.626;8.978;2023-07-20T12:38:48;25.30;70.50
27026;DHT22;14565;48.626;8.978;2023-07-20T12:41:14;24.80;71.00
27026;DHT22;14565;48.626;8.978;2023-07-20T12:43:44;25.50;70.30
27026;DHT22;14565;48.626;8.978;2023-07-20T12:46:11;26.10;70.50
27026;DHT22;14565;48.626;8.978;2023-07-20T12:48:38;25.70;66.90
27026;DHT22;14565;48.626;8.978;2023-07-20T12:51:06;25.80;68.10
27026;DHT22;14565;48.626;8.978;2023-07-20T12:53:32;26.00;67.90
27026;DHT22;14565;48.626;8.978;2023-07-20T12:55:59;26.10;67.00
27026;DHT22;14565;48.626;8.978;2023-07-20T12:58:24;25.70;67.80
27026;DHT22;14565;48.626;8.978;2023-07-20T13:00:50;25.40;69.30
27026;DHT22;14565;48.626;8.978;2023-07-20T13:03:16;25.30;67.40
27026;DHT22;14565;48.626;8.978;2023-07-20T13:05:44;25.60;67.80
27026;DHT22;14565;48.626;8.978;2023-07-20T13:08:10;25.60;68.30
27026;DHT22;14565;48.626;8.978;2023-07-20T13:10:36;25.90;68.80
27026;DHT22;14565;48.626;8.978;2023-07-20T13:13:01;25.90;67.90
27026;DHT22;14565;48.626;8.978;2023-07-20T13:15:31;25.80;66.70
27026;DHT22;14565;48.626;8.978;2023-07-20T13:17:58;25.90;66.10
27026;DHT22;14565;48.626;8.978;2023-07-20T13:20:25;25.80;66.20
27026;DHT22;14565;48.626;8.978;2023-07-20T13:22:50;25.40;65.20
27026;DHT22;14565;48.626;8.978;2023-07-20T13:25:16;25.00;65.90
27026;DHT22;14565;48.626;8.978;2023-07-20T13:27:42;25.20;68.00
27026;DHT22;14565;48.626;8.978;2023-07-20T13:30:08;25.50;67.20
27026;DHT22;14565;48.626;8.978;2023-07-20T13:32:36;25.80;67.30
27026;DHT22;14565;48.626;8.978;2023-07-20T13:35:02;25.90;67.20
27026;DHT22;14565;48.626;8.978;2023-07-20T13:37:28;25.90;67.60
27026;DHT22;14565;48.626;8.978;2023-07-20T13:39:54;25.80;67.10
27026;DHT22;14565;48.626;8.978;2023-07-20T13:42:20;25.30;68.50
27026;DHT22;14565;48.626;8.978;2023-07-20T13:44:50;25.00;66.80
27026;DHT22;14565;48.626;8.978;2023-07-20T13:47:15;24.90;66.70
27026;DHT22;14565;48.626;8.978;2023-07-20T13:49:41;24.90;67.40
27026;DHT22;14565;48.626;8.978;2023-07-20T13:52:07;24.70;71.00
27026;DHT22;14565;48.626;8.978;2023-07-20T13:54:32;25.20;69.50
27026;DHT22;14565;48.626;8.978;2023-07-20T13:56:58;25.50;68.20
27026;DHT22;14565;48.626;8.978;2023-07-20T13:59:24;25.40;68.60
27026;DHT22;14565;48.626;8.978;2023-07-20T14:01:50;25.10;68.90
27026;DHT22;14565;48.626;8.978;2023-07-20T14:04:16;25.10;68.00
27026;DHT22;14565;48.626;8.978;2023-07-20T14:06:42;25.00;68.20
27026;DHT22;14565;48.626;8.978;2023-07-20T14:09:08;25.40;69.90
27026;DHT22;14565;48.626;8.978;2023-07-20T14:11:34;25.30;69.90
27026;DHT22;14565;48.626;8.978;2023-07-20T14:13:59;25.50;69.50
27026;DHT22;14565;48.626;8.978;2023-07-20T14:16:26;25.30;71.00
27026;DHT22;14565;48.626;8.978;2023-07-20T14:18:52;25.10;69.80
27026;DHT22;14565;48.626;8.978;2023-07-20T14:21:20;25.30;69.70
27026;DHT22;14565;48.626;8.978;2023-07-20T14:23:47;25.00;68.90
27026;DHT22;14565;48.626;8.978;2023-07-20T14:26:13;24.90;68.30
27026;DHT22;14565;48.626;8.978;2023-07-20T14:28:39;24.80;68.20
27026;DHT22;14565;48.626;8.978;2023-07-20T14:31:05;24.30;68.20
27026;DHT22;14565;48.626;8.978;2023-07-20T14:33:31;24.40;69.40
27026;DHT22;14565;48.626;8.978;2023-07-20T14:35:57;24.40;69.90
27026;DHT22;14565;48.626;8.978;2023-07-20T14:38:23;24.60;69.50
27026;DHT22;14565;48.626;8.978;2023-07-20T14:40:49;24.40;70.00
27026;DHT22;14565;48.626;8.978;2023-07-20T14:43:14;24.60;69.10
27026;DHT22;14565;48.626;8.978;2023-07-20T14:45:43;24.50;67.80
27026;DHT22;14565;48.626;8.978;2023-07-20T14:48:09;24.70;68.40
27026;DHT22;14565;48.626;8.978;2023-07-20T14:50:34;24.50;70.60
27026;DHT22;14565;48.626;8.978;2023-07-20T14:53:00;24.30;70.40
27026;DHT22;14565;48.626;8.978;2023-07-20T14:55:26;24.50;71.20
27026;DHT22;14565;48.626;8.978;2023-07-20T14:57:52;24.20;71.10
27026;DHT22;14565;48.626;8.978;2023-07-20T15:00:18;24.10;71.90
27026;DHT22;14565;48.626;8.978;2023-07-20T15:02:45;24.20;71.20
27026;DHT22;14565;48.626;8.978;2023-07-20T15:05:11;24.30;72.20
27026;DHT22;14565;48.626;8.978;2023-07-20T15:07:37;24.50;71.80
27026;DHT22;14565;48.626;8.978;2023-07-20T15:10:03;24.50;71.10
27026;DHT22;14565;48.626;8.978;2023-07-20T15:12:30;24.70;71.00
27026;DHT22;14565;48.626;8.978;2023-07-20T15:15:09;24.70;69.70
27026;DHT22;14565;48.626;8.978;2023-07-20T15:17:36;24.90;69.40
27026;DHT22;14565;48.626;8.978;2023-07-20T15:20:03;24.90;70.10
27026;DHT22;14565;48.626;8.978;2023-07-20T15:22:33;24.70;70.20
27026;DHT22;14565;48.626;8.978;2023-07-20T15:24:59;25.00;69.80
27026;DHT22;14565;48.626;8.978;2023-07-20T15:27:24;25.00;70.00
27026;DHT22;14565;48.626;8.978;2023-07-20T15:29:50;24.80;70.00
27026;DHT22;14565;48.626;8.978;2023-07-20T15:32:17;24.90;69.40
27026;DHT22;14565;48.626;8.978;2023-07-20T15:34:43;24.70;70.30
27026;DHT22;14565;48.626;8.978;2023-07-20T15:37:10;24.40;71.90
27026;DHT22;14565;48.626;8.978;2023-07-20T15:39:36;24.30;71.30
27026;DHT22;14565;48.626;8.978;2023-07-20T15:42:02;24.50;72.60
27026;DHT22;14565;48.626;8.978;2023-07-20T15:44:28;24.80;71.80
27026;DHT22;14565;48.626;8.978;2023-07-20T15:46:54;24.50;72.10
27026;DHT22;14565;48.626;8.978;2023-07-20T15:49:20;24.60;72.30